Time;durP1;ratioP1;P1;durP2;ratioP2;P2;SDS_P1;SDS_P2;PMS_P1;PMS_P2;Temp;Humidity;BMP_temperature;BMP_pressure;BME280_temperature;BME280_humidity;BME280_pressure;Samples;Min_cycle;Max_cycle;Signal;HPM_P1;HPM_P2
2021/04/09 14:52:34;;;;;;;11.32;5.45;;;20.60;63.80;;;;;;5085115;27;20384;-73
2021/04/09 14:56:27;;;;;;;13.77;5.80;;;20.10;69.70;;;;;;5053585;28;20894;-56
2021/04/09 14:58:54;;;;;;;14.23;6.13;;;20.60;65.80;;;;;;5024588;28;20113;-49
2021/04/09 15:01:21;;;;;;;17.98;6.20;;;20.80;64.70;;;;;;5023089;28;20386;-58
2021/04/09 15:03:48;;;;;;;16.13;6.07;;;20.80;64.50;;;;;;5033694;28;20356;-57
2021/04/09 15:06:14;;;;;;;13.93;5.13;;;20.80;64.90;;;;;;5022974;28;20037;-50
2021/04/09 15:08:41;;;;;;;11.20;4.85;;;20.80;65.40;;;;;;5036482;28;20029;-49
2021/04/09 15:11:07;;;;;;;11.43;4.90;;;20.70;65.50;;;;;;5025693;28;20402;-51
2021/04/09 15:13:32;;;;;;;14.07;5.47;;;20.70;65.80;;;;;;5024982;28;20034;-47
2021/04/09 15:15:58;;;;;;;13.25;4.20;;;20.60;66.20;;;;;;5017723;28;20104;-57
2021/04/09 15:18:24;;;;;;;10.95;4.20;;;20.60;66.50;;;;;;5023962;28;20057;-48
2021/04/09 15:20:50;;;;;;;12.25;4.35;;;20.60;66.70;;;;;;5031199;28;20029;-52
2021/04/09 15:23:16;;;;;;;11.50;3.97;;;20.60;66.80;;;;;;5030679;28;20418;-51
2021/04/09 15:25:41;;;;;;;7.25;3.90;;;20.60;66.90;;;;;;5027150;28;20026;-51
2021/04/09 15:28:07;;;;;;;8.65;3.75;;;20.50;66.90;;;;;;5027434;28;20075;-51
2021/04/09 15:30:33;;;;;;;8.65;4.15;;;20.50;66.90;;;;;;5033634;28;20128;-49
2021/04/09 15:32:59;;;;;;;14.50;3.97;;;20.50;67.10;;;;;;5031298;28;20022;-50
2021/04/09 15:35:25;;;;;;;12.27;3.67;;;20.50;67.30;;;;;;5013505;28;20096;-49
2021/04/09 15:37:51;;;;;;;11.95;3.67;;;20.50;67.50;;;;;;5019768;28;20080;-53
2021/04/09 15:40:17;;;;;;;7.03;3.22;;;20.50;67.40;;;;;;5025275;28;20037;-52
2021/04/09 15:42:43;;;;;;;13.05;3.00;;;20.50;67.60;;;;;;5022706;28;20075;-47
2021/04/09 15:45:09;;;;;;;9.57;3.40;;;20.50;68.00;;;;;;5024080;28;20021;-48
2021/04/09 15:47:37;;;;;;;13.23;3.88;;;20.50;68.10;;;;;;5019242;28;20022;-54
2021/04/09 15:50:04;;;;;;;8.07;3.38;;;20.50;68.30;;;;;;5025807;28;20490;-51
2021/04/09 15:52:30;;;;;;;7.72;3.13;;;20.50;68.40;;;;;;5025919;28;20497;-54
2021/04/09 15:54:55;;;;;;;7.43;3.15;;;20.50;67.80;;;;;;5024416;28;20050;-57
2021/04/09 15:57:21;;;;;;;9.43;3.15;;;20.50;68.50;;;;;;5024099;28;20026;-54
2021/04/09 15:59:47;;;;;;;12.35;3.08;;;20.50;68.70;;;;;;5023979;28;20493;-50
2021/04/09 16:02:12;;;;;;;12.05;3.53;;;20.50;68.60;;;;;;5018288;28;20045;-53
2021/04/09 16:04:38;;;;;;;10.05;3.70;;;20.50;69.10;;;;;;5024272;28;20572;-51
2021/04/09 16:07:05;;;;;;;9.63;3.55;;;20.50;69.90;;;;;;5015304;28;20152;-51
2021/04/09 16:09:31;;;;;;;11.55;2.92;;;20.50;70.30;;;;;;5012741;28;20033;-50
2021/04/09 16:11:57;;;;;;;9.23;3.50;;;20.50;70.80;;;;;;5010689;28;20022;-47
2021/04/09 16:14:23;;;;;;;9.35;3.13;;;20.50;71.40;;;;;;5009950;28;20037;-51
2021/04/09 16:16:49;;;;;;;10.52;3.13;;;20.60;71.60;;;;;;5011556;28;20394;-49
2021/04/09 16:19:15;;;;;;;12.60;3.65;;;20.60;72.20;;;;;;5011556;28;20026;-49
2021/04/09 16:21:40;;;;;;;10.10;2.97;;;20.50;72.30;;;;;;5010417;28;20482;-49
2021/04/09 16:24:08;;;;;;;11.05;2.97;;;20.50;72.40;;;;;;5011101;28;20024;-50
2021/04/09 16:26:36;;;;;;;12.75;3.20;;;20.60;72.70;;;;;;5022051;28;20100;-50
2021/04/09 16:29:03;;;;;;;7.20;2.78;;;20.60;73.00;;;;;;5009363;28;20145;-63
2021/04/09 16:31:28;;;;;;;;;;;20.50;73.30;;;;;;5011485;28;20049;-59
2021/04/09 16:33:54;;;;;;;8.15;3.30;;;20.50;73.50;;;;;;5008158;28;19971;-51
2021/04/09 16:36:20;;;;;;;11.02;3.33;;;20.50;73.80;;;;;;5010068;28;20060;-53
2021/04/09 16:38:45;;;;;;;8.70;2.67;;;20.50;74.30;;;;;;5004034;28;20018;-49
2021/04/09 16:41:11;;;;;;;7.75;2.63;;;20.60;74.10;;;;;;5006904;28;20034;-49
2021/04/09 16:43:37;;;;;;;8.70;2.15;;;20.60;73.80;;;;;;5010049;28;20032;-50
2021/04/09 16:46:02;;;;;;;5.88;2.85;;;20.60;73.50;;;;;;5008552;28;20405;-46
2021/04/09 16:48:28;;;;;;;8.25;2.63;;;20.60;73.50;;;;;;5004361;28;20029;-52
2021/04/09 16:50:54;;;;;;;6.10;2.30;;;20.60;73.10;;;;;;5009546;28;20091;-48
2021/04/09 16:53:20;;;;;;;4.85;2.40;;;20.50;73.00;;;;;;5009493;28;20037;-59
2021/04/09 16:55:46;;;;;;;6.82;2.58;;;20.50;73.00;;;;;;5010192;28;20057;-53
2021/04/09 16:58:11;;;;;;;6.97;2.70;;;20.50;73.00;;;;;;5009363;28;20461;-52
2021/04/09 17:00:37;;;;;;;8.35;1.80;;;20.50;72.80;;;;;;5009900;28;20108;-52
2021/04/09 17:03:04;;;;;;;7.55;2.47;;;20.50;72.60;;;;;;5010058;28;20486;-50
2021/04/09 17:05:30;;;;;;;6.32;2.28;;;20.50;72.50;;;;;;5010173;28;20029;-53
2021/04/09 17:07:56;;;;;;;6.95;2.70;;;20.50;72.50;;;;;;5010695;28;20021;-55
2021/04/09 17:10:22;;;;;;;4.82;2.15;;;20.50;72.40;;;;;;5009116;28;20034;-50
2021/04/09 17:12:48;;;;;;;5.17;2.33;;;20.50;72.40;;;;;;5009477;28;20026;-55
2021/04/09 17:15:15;;;;;;;7.75;2.28;;;20.50;72.40;;;;;;5008804;28;20505;-53
2021/04/09 17:17:41;;;;;;;5.13;2.10;;;20.50;72.40;;;;;;5009319;28;20026;-58
2021/04/09 17:20:11;;;;;;;8.65;2.30;;;20.50;72.60;;;;;;5009650;28;20026;-52
2021/04/09 17:22:37;;;;;;;5.25;2.10;;;20.50;72.60;;;;;;5008878;28;20910;-50
2021/04/09 17:25:04;;;;;;;4.55;1.83;;;20.40;72.50;;;;;;5010164;28;20030;-53
2021/04/09 17:27:30;;;;;;;;;;;20.50;72.60;;;;;;5010997;28;20029;-55
2021/04/09 17:29:56;;;;;;;7.10;1.95;;;20.50;72.50;;;;;;5008975;28;19905;-54
2021/04/09 17:32:22;;;;;;;8.27;2.10;;;20.50;72.60;;;;;;5009496;28;20034;-50
2021/04/09 17:34:48;;;;;;;11.23;3.35;;;20.50;72.60;;;;;;5007180;28;20053;-55
2021/04/09 17:37:17;;;;;;;6.13;2.10;;;20.50;73.00;;;;;;5009037;28;20025;-56
2021/04/09 17:39:43;;;;;;;4.95;2.08;;;20.40;73.40;;;;;;5007209;28;20450;-48
2021/04/09 17:42:09;;;;;;;5.90;1.90;;;20.50;73.00;;;;;;5008239;28;20049;-51
2021/04/09 17:44:35;;;;;;;7.82;2.50;;;20.50;73.10;;;;;;5010440;28;20022;-49
2021/04/09 17:47:00;;;;;;;6.45;2.13;;;20.50;72.80;;;;;;5009901;28;20038;-51
2021/04/09 17:49:26;;;;;;;6.85;2.25;;;20.60;72.40;;;;;;5006952;28;20080;-53
2021/04/09 17:51:52;;;;;;;6.40;1.60;;;20.60;72.50;;;;;;5005029;28;20049;-46
2021/04/09 17:54:18;;;;;;;8.05;1.92;;;20.70;72.40;;;;;;5007417;28;20430;-47
2021/04/09 17:56:43;;;;;;;8.00;2.13;;;20.70;71.90;;;;;;5005842;28;20033;-59
2021/04/09 17:59:09;;;;;;;4.32;1.70;;;20.70;71.40;;;;;;5009077;28;20105;-51
2021/04/09 18:01:35;;;;;;;4.57;1.92;;;20.80;71.00;;;;;;5009786;28;20045;-44
2021/04/09 18:04:00;;;;;;;5.30;2.50;;;20.80;71.00;;;;;;5008681;28;20041;-48
2021/04/09 18:06:26;;;;;;;5.30;2.10;;;20.80;70.90;;;;;;5009884;28;20049;-56
2021/04/09 18:08:52;;;;;;;7.80;2.05;;;20.80;71.00;;;;;;5009323;28;20474;-47
2021/04/09 18:11:17;;;;;;;9.07;3.25;;;20.80;71.70;;;;;;5009623;28;20030;-57
2021/04/09 18:13:43;;;;;;;17.23;2.75;;;20.90;72.90;;;;;;5009361;28;20022;-60
2021/04/09 18:16:09;;;;;;;16.38;3.35;;;20.90;74.20;;;;;;5009551;28;20046;-51
2021/04/09 18:18:36;;;;;;;31.38;3.42;;;20.90;75.00;;;;;;5009977;28;20033;-50
2021/04/09 18:21:05;;;;;;;28.50;3.90;;;20.90;75.60;;;;;;5010079;28;20036;-53
2021/04/09 18:23:31;;;;;;;23.05;3.53;;;21.00;75.70;;;;;;5008660;28;20063;-60
2021/04/09 18:25:57;;;;;;;20.23;6.25;;;21.00;75.30;;;;;;5007528;28;20026;-54
2021/04/09 18:28:23;;;;;;;15.80;3.70;;;21.00;75.60;;;;;;5008356;28;20100;-59
2021/04/09 18:30:51;;;;;;;18.47;3.80;;;21.00;75.30;;;;;;5008182;28;20113;-46
2021/04/09 18:33:22;;;;;;;18.55;4.38;;;21.00;75.00;;;;;;5009120;28;20022;-47
2021/04/09 18:35:50;;;;;;;16.48;4.00;;;21.00;74.70;;;;;;5007890;28;20044;-45
2021/04/09 18:38:15;;;;;;;20.33;3.97;;;21.10;74.40;;;;;;5008083;28;20030;-47
2021/04/09 18:40:42;;;;;;;18.08;3.92;;;21.10;74.00;;;;;;5009395;28;20045;-58
2021/04/09 18:43:08;;;;;;;18.00;4.32;;;21.10;73.60;;;;;;5008403;28;20328;-50
2021/04/09 18:45:34;;;;;;;15.77;3.63;;;21.10;73.20;;;;;;5008369;28;20490;-49
2021/04/09 18:47:59;;;;;;;16.83;3.92;;;21.10;73.20;;;;;;5008847;28;20108;-47
2021/04/09 18:50:28;;;;;;;25.55;5.20;;;21.20;72.80;;;;;;5008228;28;20128;-54
2021/04/09 18:52:55;;;;;;;18.13;5.13;;;21.20;72.60;;;;;;5008876;28;20042;-53
2021/04/09 18:55:21;;;;;;;14.85;5.07;;;21.20;72.30;;;;;;5008627;28;20137;-48
2021/04/09 18:57:47;;;;;;;12.85;3.80;;;21.20;72.10;;;;;;5008536;28;20085;-53
2021/04/09 19:00:13;;;;;;;14.75;3.83;;;21.30;71.90;;;;;;5008430;28;20034;-61
2021/04/09 19:02:39;;;;;;;13.82;4.43;;;21.30;71.90;;;;;;5008782;28;20108;-62
2021/04/09 19:05:06;;;;;;;10.52;3.88;;;21.30;72.30;;;;;;5008079;28;20149;-47
2021/04/09 19:07:32;;;;;;;;;;;21.40;72.00;;;;;;5008656;28;20030;-46
2021/04/09 19:09:58;;;;;;;10.88;4.30;;;21.30;72.00;;;;;;5008776;28;19959;-56
2021/04/09 19:12:23;;;;;;;11.27;3.33;;;21.30;72.00;;;;;;5009422;28;20030;-53
2021/04/09 19:14:49;;;;;;;11.63;3.83;;;21.40;72.20;;;;;;5008576;28;20397;-49
2021/04/09 19:17:20;;;;;;;8.25;2.97;;;21.40;72.00;;;;;;5008292;28;20061;-53
2021/04/09 19:19:46;;;;;;;9.63;3.15;;;21.40;71.80;;;;;;5009906;28;20372;-60
2021/04/09 19:22:12;;;;;;;10.82;3.20;;;21.40;71.80;;;;;;5009050;28;20058;-51
2021/04/09 19:24:38;;;;;;;11.70;3.15;;;21.40;71.80;;;;;;5007762;28;20515;-53
2021/04/09 19:27:03;;;;;;;9.85;3.50;;;21.50;71.80;;;;;;5008678;28;20475;-55
2021/04/09 19:29:29;;;;;;;8.23;3.42;;;21.40;71.70;;;;;;5008133;28;20429;-58
2021/04/09 19:31:55;;;;;;;11.40;3.10;;;21.50;71.30;;;;;;5008682;28;20499;-57
2021/04/09 19:34:21;;;;;;;9.05;3.17;;;21.50;71.00;;;;;;5008535;28;20030;-48
2021/04/09 19:36:48;;;;;;;12.82;3.13;;;21.50;70.60;;;;;;5008838;28;20041;-57
2021/04/09 19:39:14;;;;;;;9.88;3.15;;;21.50;70.50;;;;;;5008470;28;20060;-52
2021/04/09 19:41:40;;;;;;;10.95;3.13;;;21.60;70.40;;;;;;5009291;28;20030;-47
2021/04/09 19:44:06;;;;;;;13.77;4.28;;;21.60;70.40;;;;;;5011356;28;20026;-56
2021/04/09 19:46:33;;;;;;;6.82;2.47;;;21.60;70.10;;;;;;5012011;28;20470;-50
2021/04/09 19:48:59;;;;;;;7.82;3.10;;;21.60;69.90;;;;;;5010751;28;20041;-54
2021/04/09 19:51:24;;;;;;;10.68;2.40;;;21.60;69.90;;;;;;5012065;28;20029;-57
2021/04/09 19:53:50;;;;;;;7.40;2.75;;;21.60;70.10;;;;;;5012269;28;20018;-55
2021/04/09 19:56:16;;;;;;;7.63;3.03;;;21.60;70.20;;;;;;5012218;28;20063;-60
2021/04/09 19:58:41;;;;;;;9.05;2.90;;;21.70;70.10;;;;;;4998520;28;20100;-58
2021/04/09 20:01:07;;;;;;;9.93;3.45;;;21.70;70.30;;;;;;5010407;28;20520;-55
2021/04/09 20:03:33;;;;;;;9.20;2.58;;;21.60;70.30;;;;;;5011202;28;20414;-49
2021/04/09 20:05:59;;;;;;;6.88;2.40;;;21.70;70.40;;;;;;5012478;28;20137;-60
2021/04/09 20:08:25;;;;;;;9.00;3.28;;;21.70;70.50;;;;;;5012723;28;20030;-56
2021/04/09 20:10:50;;;;;;;6.00;2.25;;;21.70;70.40;;;;;;5011879;28;20030;-49
2021/04/09 20:13:16;;;;;;;7.47;2.53;;;21.70;70.20;;;;;;5011897;28;20482;-52
2021/04/09 20:15:42;;;;;;;11.18;2.50;;;21.70;70.10;;;;;;5043981;28;20041;-46
2021/04/09 20:18:07;;;;;;;6.53;2.42;;;21.70;69.90;;;;;;4997158;28;20390;-53
2021/04/09 20:20:33;;;;;;;7.68;2.40;;;21.70;69.80;;;;;;4992519;28;20026;-58
2021/04/09 20:22:59;;;;;;;7.63;2.45;;;21.70;69.60;;;;;;4997083;28;20493;-55
2021/04/09 20:25:25;;;;;;;6.38;2.30;;;21.70;69.50;;;;;;5010700;28;20030;-64
2021/04/09 20:27:51;;;;;;;6.53;2.20;;;21.70;69.40;;;;;;5011018;28;20034;-51
2021/04/09 20:30:18;;;;;;;9.55;2.60;;;21.70;69.30;;;;;;5011196;28;20108;-48
2021/04/09 20:32:44;;;;;;;6.97;2.65;;;21.70;69.60;;;;;;5011569;28;20022;-50
2021/04/09 20:35:11;;;;;;;7.25;2.45;;;21.70;69.10;;;;;;5011487;28;20768;-46
2021/04/09 20:37:38;;;;;;;7.43;2.30;;;21.70;68.90;;;;;;5011286;28;20041;-56
2021/04/09 20:40:05;;;;;;;7.73;2.43;;;21.70;68.90;;;;;;5011614;28;20030;-45
2021/04/09 20:42:31;;;;;;;6.38;2.15;;;21.70;68.60;;;;;;5010856;28;20029;-55
2021/04/09 20:44:56;;;;;;;3.85;2.00;;;21.80;68.50;;;;;;5011291;28;20493;-56
2021/04/09 20:47:22;;;;;;;7.53;3.13;;;21.70;68.30;;;;;;5010757;28;20033;-54
2021/04/09 20:49:48;;;;;;;5.47;2.22;;;21.70;68.20;;;;;;5010616;28;20410;-62
2021/04/09 20:52:14;;;;;;;10.77;2.00;;;21.70;68.00;;;;;;5011609;28;20022;-49
2021/04/09 20:54:39;;;;;;;5.32;2.42;;;21.80;67.90;;;;;;5043076;28;20499;-48
2021/04/09 20:57:05;;;;;;;6.30;2.40;;;21.80;67.90;;;;;;5008224;28;20049;-55
2021/04/09 20:59:31;;;;;;;6.53;2.15;;;21.70;67.70;;;;;;5010856;28;20038;-47
2021/04/09 21:01:57;;;;;;;6.15;2.13;;;21.70;67.50;;;;;;5011286;28;20379;-51
2021/04/09 21:04:22;;;;;;;5.07;1.73;;;21.70;67.30;;;;;;5008786;28;20034;-51
2021/04/09 21:06:48;;;;;;;5.00;2.08;;;21.70;67.30;;;;;;5011398;28;20041;-51
2021/04/09 21:09:14;;;;;;;5.00;2.08;;;21.70;67.10;;;;;;5017889;28;20033;-56
2021/04/09 21:11:41;;;;;;;4.72;2.25;;;21.70;67.10;;;;;;5021784;28;20022;-50
2021/04/09 21:14:06;;;;;;;;;;;21.70;67.00;;;;;;5010465;28;20380;-47
2021/04/09 21:16:33;;;;;;;6.32;2.22;;;21.70;67.00;;;;;;5010878;28;19924;-53
2021/04/09 21:18:59;;;;;;;4.40;2.10;;;21.70;66.80;;;;;;5010860;28;20026;-49
2021/04/09 21:21:25;;;;;;;6.80;1.88;;;21.70;66.60;;;;;;5011006;28;20475;-50
2021/04/09 21:23:51;;;;;;;4.33;2.00;;;21.70;66.70;;;;;;5009928;28;20034;-48
2021/04/09 21:26:17;;;;;;;6.78;2.28;;;21.70;66.80;;;;;;5011395;28;20026;-49
2021/04/09 21:28:43;;;;;;;4.72;2.70;;;21.70;66.80;;;;;;5010185;28;20040;-49
2021/04/09 21:31:09;;;;;;;5.78;2.70;;;21.70;66.80;;;;;;5009439;28;20129;-47
2021/04/09 21:33:35;;;;;;;4.70;3.03;;;21.60;66.60;;;;;;5010306;28;20057;-53
2021/04/09 21:36:01;;;;;;;7.13;3.10;;;21.60;66.80;;;;;;5009974;28;20042;-51
2021/04/09 21:38:27;;;;;;;5.35;2.58;;;21.70;66.80;;;;;;5009203;28;20029;-54
2021/04/09 21:40:53;;;;;;;6.78;3.03;;;21.70;66.70;;;;;;5010392;28;20395;-49
2021/04/09 21:43:20;;;;;;;4.60;2.40;;;21.70;67.00;;;;;;5010893;28;20045;-51
2021/04/09 21:45:46;;;;;;;5.93;2.42;;;21.70;67.30;;;;;;5010377;28;20269;-54
2021/04/09 21:48:13;;;;;;;3.22;2.10;;;21.70;66.60;;;;;;5010564;28;20497;-49
2021/04/09 21:50:39;;;;;;;4.07;2.10;;;21.60;66.40;;;;;;5002504;28;20050;-47
2021/04/09 21:53:05;;;;;;;8.53;2.73;;;21.60;66.30;;;;;;5009706;28;20037;-47
2021/04/09 21:55:31;;;;;;;6.37;2.20;;;21.60;66.30;;;;;;5009985;28;20049;-54
2021/04/09 21:57:57;;;;;;;8.63;2.40;;;21.60;66.20;;;;;;5010035;28;20390;-48
2021/04/09 22:00:30;;;;;;;5.97;2.30;;;21.60;66.20;;;;;;5010297;28;20102;-49
2021/04/09 22:02:57;;;;;;;4.85;2.45;;;21.60;65.90;;;;;;5010481;28;20101;-54
2021/04/09 22:05:23;;;;;;;2.97;1.65;;;21.60;65.70;;;;;;5008162;28;20108;-50
2021/04/09 22:07:49;;;;;;;7.25;2.38;;;21.60;65.80;;;;;;5008569;28;20044;-45
2021/04/09 22:10:17;;;;;;;5.30;2.10;;;21.50;65.60;;;;;;5009953;28;20378;-50
2021/04/09 22:12:43;;;;;;;5.75;1.95;;;21.60;65.50;;;;;;5010409;28;20025;-52
2021/04/09 22:15:10;;;;;;;4.67;2.07;;;21.60;65.70;;;;;;5010262;28;20026;-52
2021/04/09 22:17:36;;;;;;;2.95;1.70;;;21.60;65.70;;;;;;5010013;28;20398;-53
2021/04/09 22:20:05;;;;;;;4.20;2.20;;;21.60;66.20;;;;;;5006675;28;20022;-48
2021/04/09 22:22:30;;;;;;;5.80;2.08;;;21.60;66.90;;;;;;5009059;28;20029;-52
2021/04/09 22:24:56;;;;;;;7.32;1.95;;;21.60;67.30;;;;;;5003119;28;20491;-49
2021/04/09 22:27:22;;;;;;;7.47;2.20;;;21.60;68.00;;;;;;4990213;28;20023;-53
2021/04/09 22:29:48;;;;;;;4.70;2.33;;;21.60;68.70;;;;;;4991070;28;20444;-57
2021/04/09 22:32:13;;;;;;;10.55;2.40;;;21.60;69.80;;;;;;5009925;28;20022;-50
2021/04/09 22:34:39;;;;;;;5.20;2.28;;;21.60;71.20;;;;;;5009829;28;20038;-47
2021/04/09 22:37:05;;;;;;;4.32;2.13;;;21.70;72.90;;;;;;5009664;28;20025;-47
2021/04/09 22:39:30;;;;;;;5.13;2.00;;;21.60;73.70;;;;;;5001349;28;20057;-46
2021/04/09 22:41:56;;;;;;;6.45;2.22;;;21.60;75.00;;;;;;4994914;28;20025;-48
2021/04/09 22:44:22;;;;;;;5.95;2.63;;;21.60;77.10;;;;;;5008991;28;20025;-49
2021/04/09 22:46:47;;;;;;;4.53;2.22;;;21.70;77.40;;;;;;5008953;28;20029;-48
2021/04/09 22:49:13;;;;;;;4.85;1.98;;;21.60;77.20;;;;;;5009015;28;20026;-47
2021/04/09 22:51:39;;;;;;;6.05;2.45;;;21.60;76.30;;;;;;5008418;28;20040;-52
2021/04/09 22:54:04;;;;;;;9.20;2.05;;;21.60;76.20;;;;;;5009534;28;20030;-52
2021/04/09 22:56:30;;;;;;;12.00;2.40;;;21.60;75.10;;;;;;5007695;28;20034;-55
2021/04/09 22:58:56;;;;;;;7.07;2.30;;;21.60;75.00;;;;;;5009608;28;20040;-57
2021/04/09 23:01:22;;;;;;;5.35;1.95;;;21.50;74.40;;;;;;5009039;28;20057;-48
2021/04/09 23:03:47;;;;;;;4.32;2.38;;;21.50;74.00;;;;;;4997831;28;20474;-48
2021/04/09 23:06:13;;;;;;;4.32;1.80;;;21.50;74.00;;;;;;4998444;28;20100;-48
2021/04/09 23:08:39;;;;;;;10.98;2.53;;;21.50;73.80;;;;;;5011561;28;20045;-48
2021/04/09 23:11:06;;;;;;;7.72;1.85;;;21.50;73.70;;;;;;5011611;28;20030;-53
2021/04/09 23:13:31;;;;;;;5.80;1.90;;;21.50;73.80;;;;;;5011752;28;20045;-59
2021/04/09 23:15:57;;;;;;;6.95;2.03;;;21.50;73.80;;;;;;5012655;28;20046;-50
2021/04/09 23:18:23;;;;;;;4.18;1.95;;;21.60;73.30;;;;;;5015697;28;20029;-52
2021/04/09 23:20:49;;;;;;;5.35;1.70;;;21.50;72.90;;;;;;5015883;28;20042;-55
2021/04/09 23:23:14;;;;;;;13.75;2.22;;;21.50;73.20;;;;;;5013819;28;20113;-47
2021/04/09 23:25:40;;;;;;;6.22;1.95;;;21.50;73.10;;;;;;5015539;28;20025;-46
2021/04/09 23:28:06;;;;;;;5.85;1.67;;;21.50;72.20;;;;;;5016150;28;20022;-52
2021/04/09 23:30:31;;;;;;;7.07;1.83;;;21.50;72.20;;;;;;5018896;28;20386;-57
2021/04/09 23:32:57;;;;;;;3.83;1.95;;;21.50;71.50;;;;;;5017341;28;20022;-55
2021/04/09 23:35:24;;;;;;;8.52;1.48;;;21.50;71.40;;;;;;5015804;28;20049;-62
2021/04/09 23:37:50;;;;;;;;;;;21.50;71.40;;;;;;5017166;28;20030;-62
2021/04/09 23:40:16;;;;;;;3.35;1.42;;;21.50;70.90;;;;;;5015928;28;19909;-54
2021/04/09 23:42:42;;;;;;;8.98;2.00;;;21.50;70.50;;;;;;5015995;28;20022;-49
2021/04/09 23:45:08;;;;;;;5.60;2.40;;;21.50;70.20;;;;;;5015902;28;20021;-46
2021/04/09 23:47:34;;;;;;;4.15;1.75;;;21.40;70.20;;;;;;5015599;28;20041;-48
2021/04/09 23:49:59;;;;;;;9.20;2.33;;;21.40;69.90;;;;;;5015235;28;20038;-50
2021/04/09 23:52:25;;;;;;;4.20;1.50;;;21.40;69.70;;;;;;5015897;28;20033;-51
2021/04/09 23:54:51;;;;;;;6.45;2.20;;;21.40;69.50;;;;;;5014525;28;20038;-53
2021/04/09 23:57:17;;;;;;;5.35;1.67;;;21.40;69.40;;;;;;5015195;28;20029;-49
2021/04/09 23:59:42;;;;;;;5.55;1.52;;;21.50;69.60;;;;;;5015991;28;20022;-55
